Time;durP1;ratioP1;P1;durP2;ratioP2;P2;SDS_P1;SDS_P2;PMS_P1;PMS_P2;Temp;Humidity;BMP_temperature;BMP_pressure;BME280_temperature;BME280_humidity;BME280_pressure;Samples;Min_cycle;Max_cycle;Signal;HPM_P1;HPM_P2
2022/07/04 00:00:57;;;;;;;10.18;6.50;;;23.10;66.80;;;;;;5094593;28;20122;-16
2022/07/04 00:03:23;;;;;;;11.73;7.40;;;23.00;67.20;;;;;;5095000;28;20429;-16
2022/07/04 00:05:49;;;;;;;10.35;6.43;;;23.00;67.20;;;;;;5094123;28;20475;-17
2022/07/04 00:08:15;;;;;;;9.75;8.00;;;22.90;67.00;;;;;;5064265;28;20181;-16
2022/07/04 00:10:40;;;;;;;11.07;8.32;;;22.90;67.10;;;;;;5089382;28;20024;-16
2022/07/04 00:13:06;;;;;;;11.80;7.45;;;22.90;67.40;;;;;;5094392;28;20057;-16
2022/07/04 00:15:33;;;;;;;13.07;7.53;;;22.90;67.80;;;;;;5094086;28;20502;-16
2022/07/04 00:17:58;;;;;;;10.88;7.88;;;22.90;67.70;;;;;;5093990;28;20032;-16
2022/07/04 00:20:24;;;;;;;9.88;7.97;;;22.90;67.80;;;;;;5093961;28;20608;-16
2022/07/04 00:22:51;;;;;;;10.52;7.63;;;22.90;67.80;;;;;;5094263;28;20035;-16
2022/07/04 00:25:16;;;;;;;9.95;7.95;;;22.90;67.90;;;;;;5093876;28;20052;-16
2022/07/04 00:27:42;;;;;;;9.52;6.70;;;22.90;67.90;;;;;;5075782;28;20112;-16
2022/07/04 00:30:09;;;;;;;10.68;7.40;;;22.90;67.70;;;;;;5093763;28;20468;-17
2022/07/04 00:32:35;;;;;;;10.40;7.53;;;22.90;67.50;;;;;;5093790;28;20035;-16
2022/07/04 00:35:01;;;;;;;8.73;6.35;;;22.90;67.20;;;;;;5093888;28;20525;-16
2022/07/04 00:37:27;;;;;;;8.23;6.47;;;22.90;66.90;;;;;;5094013;28;20028;-16
2022/07/04 00:39:55;;;;;;;8.98;7.22;;;23.00;66.80;;;;;;5093727;28;20054;-17
2022/07/04 00:42:21;;;;;;;9.43;7.18;;;23.00;66.90;;;;;;5093405;28;20052;-15
2022/07/04 00:44:46;;;;;;;9.65;6.03;;;22.90;67.30;;;;;;5093445;28;20071;-15
2022/07/04 00:47:12;;;;;;;10.95;7.43;;;22.90;67.50;;;;;;5093807;28;20061;-16
2022/07/04 00:49:40;;;;;;;10.98;7.28;;;22.90;67.60;;;;;;5093340;28;20127;-15
2022/07/04 00:52:07;;;;;;;8.00;6.43;;;22.80;67.60;;;;;;5093773;28;20491;-16
2022/07/04 00:54:33;;;;;;;8.13;6.72;;;22.80;67.50;;;;;;5093245;28;20475;-16
2022/07/04 00:57:00;;;;;;;11.02;7.93;;;22.80;67.60;;;;;;5093309;28;20028;-13
2022/07/04 00:59:27;;;;;;;10.48;7.65;;;22.80;67.40;;;;;;5093298;28;20028;-16
2022/07/04 01:01:53;;;;;;;8.95;7.43;;;22.80;67.30;;;;;;5092722;28;20024;-16
2022/07/04 01:04:19;;;;;;;11.32;8.13;;;22.80;67.30;;;;;;5093347;28;20036;-15
2022/07/04 01:06:45;;;;;;;10.70;7.65;;;22.80;67.40;;;;;;5093833;28;20028;-16
2022/07/04 01:09:12;;;;;;;14.48;8.43;;;22.80;67.40;;;;;;5093234;28;20021;-16
2022/07/04 01:11:38;;;;;;;11.52;8.48;;;22.90;67.40;;;;;;5094111;28;20032;-15
2022/07/04 01:14:06;;;;;;;9.95;7.15;;;22.90;67.30;;;;;;5093313;28;20510;-16
2022/07/04 01:16:33;;;;;;;9.23;7.40;;;22.90;67.20;;;;;;5092967;28;20043;-15
2022/07/04 01:18:59;;;;;;;12.45;7.15;;;22.90;67.10;;;;;;5094006;28;20027;-16
2022/07/04 01:21:25;;;;;;;8.93;7.20;;;22.90;67.10;;;;;;5093026;28;20162;-17
2022/07/04 01:23:52;;;;;;;12.60;8.65;;;22.90;67.30;;;;;;5093681;28;20028;-16
2022/07/04 01:26:18;;;;;;;10.60;8.50;;;22.90;67.20;;;;;;5092839;28;20020;-17
2022/07/04 01:28:44;;;;;;;9.27;7.47;;;22.90;67.60;;;;;;5093000;28;20123;-17
2022/07/04 01:31:10;;;;;;;10.75;8.15;;;22.90;67.20;;;;;;5093473;28;20079;-16
2022/07/04 01:33:36;;;;;;;8.85;7.05;;;22.90;67.20;;;;;;5093301;28;20020;-17
2022/07/04 01:36:02;;;;;;;10.57;7.47;;;23.00;67.10;;;;;;5092920;28;20425;-16
2022/07/04 01:38:28;;;;;;;8.90;6.93;;;22.90;67.00;;;;;;5092912;28;20028;-16
2022/07/04 01:40:54;;;;;;;9.30;6.80;;;23.00;67.00;;;;;;5092830;28;20054;-17
2022/07/04 01:43:20;;;;;;;9.45;7.05;;;23.00;66.90;;;;;;5093074;28;20028;-16
2022/07/04 01:45:46;;;;;;;7.68;6.38;;;23.00;67.00;;;;;;5074964;28;20032;-16
2022/07/04 01:48:13;;;;;;;11.18;8.23;;;23.10;66.90;;;;;;5093109;28;20123;-16
2022/07/04 01:50:39;;;;;;;8.05;6.40;;;23.00;67.00;;;;;;5092457;28;20032;-15
2022/07/04 01:53:05;;;;;;;9.15;6.30;;;23.10;67.10;;;;;;5074799;28;20534;-18
2022/07/04 01:55:32;;;;;;;8.45;6.90;;;23.10;67.00;;;;;;5092975;28;20028;-17
2022/07/04 01:57:58;;;;;;;8.38;6.07;;;23.00;67.00;;;;;;5092928;28;20028;-17
2022/07/04 02:03:10;;;;;;;9.98;7.65;;;23.00;66.70;;;;;;5093240;28;20067;-16
2022/07/04 02:05:39;;;;;;;9.57;7.40;;;23.00;66.80;;;;;;5092907;28;20058;-16
2022/07/04 02:08:06;;;;;;;9.93;7.72;;;23.10;67.20;;;;;;5093035;28;20032;-14
2022/07/04 02:10:33;;;;;;;8.73;7.43;;;23.00;67.20;;;;;;5092456;28;20103;-15
2022/07/04 02:13:02;;;;;;;11.65;7.88;;;23.10;67.00;;;;;;5094377;28;20031;-15
2022/07/04 02:15:33;;;;;;;11.38;7.05;;;23.00;66.90;;;;;;5096720;28;20017;-16
2022/07/04 02:18:01;;;;;;;8.93;6.57;;;23.10;66.90;;;;;;5096392;28;20592;-16
2022/07/04 02:20:27;;;;;;;8.05;5.82;;;23.10;66.80;;;;;;5095936;28;20482;-16
2022/07/04 02:22:54;;;;;;;10.48;6.47;;;23.10;66.80;;;;;;5078137;28;20471;-15
2022/07/04 02:25:20;;;;;;;11.98;6.95;;;23.10;66.60;;;;;;5096466;28;20024;-18
2022/07/04 02:27:46;;;;;;;13.40;7.78;;;23.20;66.50;;;;;;5096134;28;20365;-18
2022/07/04 02:30:12;;;;;;;11.13;7.10;;;23.20;66.50;;;;;;5096946;28;20027;-17
2022/07/04 02:32:38;;;;;;;9.45;7.38;;;23.20;66.60;;;;;;5095806;28;20471;-16
2022/07/04 02:35:06;;;;;;;9.15;6.05;;;23.30;66.70;;;;;;5096193;28;20023;-16
2022/07/04 02:37:31;;;;;;;12.18;7.28;;;23.30;66.70;;;;;;5095932;28;20536;-16
2022/07/04 02:39:58;;;;;;;8.05;6.25;;;23.40;66.50;;;;;;5095912;28;20032;-16
2022/07/04 02:42:24;;;;;;;11.48;6.80;;;23.40;66.50;;;;;;5095692;28;20025;-17
2022/07/04 02:44:49;;;;;;;10.65;7.30;;;23.40;66.90;;;;;;5095999;28;20040;-17
2022/07/04 02:47:16;;;;;;;11.65;7.85;;;23.40;67.50;;;;;;5088075;28;20031;-16
2022/07/04 02:49:42;;;;;;;9.13;7.47;;;23.40;68.00;;;;;;5095608;28;20411;-17
2022/07/04 02:52:08;;;;;;;11.55;7.57;;;23.30;68.00;;;;;;5106708;28;20111;-16
2022/07/04 02:54:34;;;;;;;11.27;7.57;;;23.30;68.40;;;;;;5116134;28;20028;-15
2022/07/04 02:57:00;;;;;;;11.90;7.95;;;23.20;68.60;;;;;;5116590;28;20054;-15
2022/07/04 02:59:25;;;;;;;9.15;7.15;;;23.20;68.80;;;;;;5116549;28;20043;-15
2022/07/04 03:01:51;;;;;;;9.55;6.90;;;23.20;69.10;;;;;;5115902;28;20458;-16
2022/07/04 03:04:17;;;;;;;8.43;6.10;;;23.20;69.00;;;;;;5115597;28;20046;-16
2022/07/04 03:06:43;;;;;;;7.80;5.78;;;23.10;68.50;;;;;;5115698;28;20036;-15
2022/07/04 03:09:09;;;;;;;9.43;5.72;;;23.10;68.00;;;;;;5115769;28;20069;-15
2022/07/04 03:11:36;;;;;;;9.60;6.43;;;23.20;67.50;;;;;;5115711;28;20031;-16
2022/07/04 03:14:02;;;;;;;9.43;6.18;;;23.10;67.30;;;;;;5116012;28;20096;-17
2022/07/04 03:16:28;;;;;;;8.73;5.18;;;23.20;67.00;;;;;;5115459;28;20555;-16
2022/07/04 03:18:54;;;;;;;8.18;5.63;;;23.20;66.60;;;;;;5115597;28;20055;-16
2022/07/04 03:21:19;;;;;;;8.90;5.90;;;23.20;66.40;;;;;;5115402;28;20028;-15
2022/07/04 03:23:57;;;;;;;9.55;5.78;;;23.30;66.30;;;;;;5115088;28;20027;-18
2022/07/04 03:26:33;;;;;;;8.45;5.70;;;23.30;66.20;;;;;;5115301;28;20134;-18
2022/07/04 03:29:00;;;;;;;5.95;4.93;;;23.40;66.00;;;;;;5115442;28;20592;-16
2022/07/04 03:31:28;;;;;;;8.57;5.20;;;23.40;65.70;;;;;;5097372;28;20028;-16
2022/07/04 03:33:54;;;;;;;7.10;5.57;;;23.40;65.50;;;;;;5115550;28;20030;-16
2022/07/04 03:36:20;;;;;;;10.02;5.93;;;23.40;65.30;;;;;;5096748;28;20110;-16
2022/07/04 03:38:46;;;;;;;10.43;5.78;;;23.40;65.20;;;;;;5115198;28;20491;-17
2022/07/04 03:41:13;;;;;;;8.60;6.15;;;23.40;65.30;;;;;;5115554;28;20049;-16
2022/07/04 03:43:39;;;;;;;7.47;5.45;;;23.40;65.20;;;;;;5115346;28;20032;-16
2022/07/04 03:46:05;;;;;;;9.98;5.07;;;23.40;65.10;;;;;;5115129;28;20026;-16
2022/07/04 03:48:31;;;;;;;8.20;5.63;;;23.40;65.00;;;;;;5114665;28;20069;-16
2022/07/04 03:50:57;;;;;;;10.20;5.38;;;23.30;65.10;;;;;;5096773;28;20024;-16
2022/07/04 03:53:23;;;;;;;7.70;5.30;;;23.30;65.20;;;;;;5115275;28;20046;-16
2022/07/04 03:55:50;;;;;;;5.95;4.72;;;23.30;65.40;;;;;;5114837;28;20426;-16
2022/07/04 03:58:16;;;;;;;5.85;4.70;;;23.20;65.50;;;;;;5114699;28;20061;-14
2022/07/04 04:00:41;;;;;;;7.70;5.07;;;23.10;65.60;;;;;;5115084;28;20031;-15
2022/07/04 04:05:53;;;;;;;13.05;5.53;;;23.00;65.90;;;;;;5115251;28;20122;-15
2022/07/04 04:08:19;;;;;;;6.43;4.95;;;22.90;66.10;;;;;;5096414;28;20039;-16
2022/07/04 04:10:45;;;;;;;10.18;7.43;;;22.90;66.20;;;;;;5114528;28;20447;-16
2022/07/04 04:13:11;;;;;;;11.07;5.75;;;22.90;66.20;;;;;;5114491;28;20059;-16
2022/07/04 04:15:37;;;;;;;7.18;6.10;;;22.80;66.40;;;;;;5115080;28;20055;-16
2022/07/04 04:18:03;;;;;;;12.90;7.57;;;22.80;66.50;;;;;;5114741;28;20031;-15
2022/07/04 04:20:29;;;;;;;10.00;7.43;;;22.70;66.70;;;;;;5114355;28;20467;-15
2022/07/04 04:22:54;;;;;;;11.13;7.80;;;22.70;67.00;;;;;;5096170;28;20027;-15
2022/07/04 04:25:20;;;;;;;13.30;7.40;;;22.70;67.10;;;;;;5114536;28;20051;-16
2022/07/04 04:27:46;;;;;;;14.85;8.43;;;22.70;67.20;;;;;;5114243;28;20475;-17
2022/07/04 04:30:13;;;;;;;13.02;7.70;;;22.60;67.30;;;;;;5114329;28;20051;-15
2022/07/04 04:32:39;;;;;;;9.57;6.75;;;22.70;67.40;;;;;;5114103;28;20023;-15
2022/07/04 04:35:05;;;;;;;11.75;7.90;;;22.70;67.50;;;;;;5114456;28;20032;-16
2022/07/04 04:37:31;;;;;;;10.32;7.68;;;22.80;67.30;;;;;;5113367;28;20031;-17
2022/07/04 04:39:56;;;;;;;9.07;6.78;;;22.90;67.20;;;;;;5114035;28;20024;-16
2022/07/04 04:42:22;;;;;;;14.38;7.60;;;22.90;67.10;;;;;;5113832;28;20049;-15
2022/07/04 04:44:48;;;;;;;9.43;8.00;;;23.00;67.00;;;;;;5114738;28;20031;-15
2022/07/04 04:47:14;;;;;;;13.35;7.50;;;23.10;66.80;;;;;;5113933;28;20475;-15
2022/07/04 04:49:40;;;;;;;10.50;6.68;;;23.30;66.50;;;;;;5113673;28;20131;-17
2022/07/04 04:52:06;;;;;;;10.38;6.20;;;23.40;66.10;;;;;;5113700;28;20031;-16
2022/07/04 04:54:33;;;;;;;12.02;7.00;;;23.50;65.70;;;;;;5113744;28;20049;-15
2022/07/04 04:56:59;;;;;;;8.85;6.40;;;23.70;65.30;;;;;;5113805;28;20024;-17
2022/07/04 04:59:26;;;;;;;11.48;6.95;;;23.80;64.90;;;;;;5113784;28;20024;-16
2022/07/04 05:01:52;;;;;;;7.95;5.07;;;23.90;64.60;;;;;;5113887;28;20035;-17
2022/07/04 05:04:18;;;;;;;7.13;5.03;;;24.00;64.20;;;;;;5113703;28;20024;-16
2022/07/04 05:06:44;;;;;;;9.35;5.20;;;24.20;64.00;;;;;;5113568;28;20394;-16
2022/07/04 05:09:10;;;;;;;8.85;4.95;;;24.30;63.70;;;;;;5113958;28;20059;-15
2022/07/04 05:11:36;;;;;;;13.30;6.22;;;24.40;63.40;;;;;;5113635;28;20055;-15
2022/07/04 05:14:03;;;;;;;8.60;5.88;;;24.60;63.10;;;;;;5113504;28;20024;-16
2022/07/04 05:16:29;;;;;;;8.35;4.95;;;24.70;62.80;;;;;;5113342;28;20031;-15
2022/07/04 05:18:54;;;;;;;7.38;5.13;;;24.90;62.40;;;;;;5113758;28;20391;-15
2022/07/04 05:21:20;;;;;;;6.55;4.97;;;25.10;62.00;;;;;;5113415;28;20024;-15
2022/07/04 05:23:46;;;;;;;8.38;5.57;;;25.20;61.50;;;;;;5113769;28;20027;-15
2022/07/04 05:26:12;;;;;;;9.20;5.30;;;25.40;61.20;;;;;;5113824;28;20027;-16
2022/07/04 05:28:38;;;;;;;7.00;4.50;;;25.50;60.80;;;;;;5113315;28;20031;-16
2022/07/04 05:31:04;;;;;;;10.73;5.45;;;25.60;60.30;;;;;;5114250;28;20032;-16
2022/07/04 05:33:30;;;;;;;7.15;5.05;;;25.80;60.10;;;;;;5113306;28;20041;-16
2022/07/04 05:35:56;;;;;;;10.10;5.55;;;25.90;59.60;;;;;;5113513;28;20103;-16
2022/07/04 05:38:22;;;;;;;6.53;4.45;;;26.00;59.00;;;;;;5113787;28;20067;-16
2022/07/04 05:40:48;;;;;;;6.85;4.75;;;26.20;58.80;;;;;;5095211;28;20023;-16
2022/07/04 05:43:14;;;;;;;6.75;4.90;;;26.30;58.40;;;;;;5113329;28;20030;-16
2022/07/04 05:45:40;;;;;;;5.70;4.28;;;26.40;57.80;;;;;;5113511;28;20118;-17
2022/07/04 05:48:06;;;;;;;6.38;4.78;;;26.50;57.40;;;;;;5115126;28;20040;-16
2022/07/04 05:50:32;;;;;;;7.93;5.03;;;26.70;57.10;;;;;;5117022;28;20032;-16
2022/07/04 05:52:58;;;;;;;7.35;4.70;;;26.80;56.50;;;;;;5117597;28;20047;-16
2022/07/04 05:55:24;;;;;;;7.30;4.30;;;27.00;56.30;;;;;;5117503;28;20024;-16
2022/07/04 05:57:50;;;;;;;8.27;4.57;;;27.10;56.10;;;;;;5117168;28;20436;-15
2022/07/04 06:00:16;;;;;;;8.32;4.70;;;27.30;55.80;;;;;;5116933;28;20031;-16
2022/07/04 06:02:43;;;;;;;6.45;4.28;;;27.30;55.70;;;;;;5117368;28;20488;-15
2022/07/04 06:05:09;;;;;;;10.13;4.78;;;27.40;55.60;;;;;;5116881;28;20119;-15
2022/07/04 06:07:35;;;;;;;6.65;4.63;;;27.50;55.30;;;;;;5116998;28;20024;-16
2022/07/04 06:10:01;;;;;;;5.32;4.72;;;27.60;54.70;;;;;;5117004;28;20015;-15
2022/07/04 06:12:27;;;;;;;7.68;4.80;;;27.60;54.10;;;;;;5098421;28;20092;-16
2022/07/04 06:14:53;;;;;;;7.72;4.50;;;27.70;54.00;;;;;;5098988;28;20016;-15
2022/07/04 06:17:19;;;;;;;6.28;4.93;;;27.80;54.00;;;;;;5116881;28;20106;-16
2022/07/04 06:19:45;;;;;;;8.40;5.35;;;27.90;53.70;;;;;;5117089;28;20051;-16
2022/07/04 06:22:12;;;;;;;6.38;5.22;;;28.00;52.80;;;;;;5116454;28;20035;-17
2022/07/04 06:24:38;;;;;;;8.20;5.22;;;28.10;52.60;;;;;;5116651;28;20039;-17
2022/07/04 06:27:05;;;;;;;8.00;4.80;;;28.30;52.20;;;;;;5116933;28;20027;-16
2022/07/04 06:29:31;;;;;;;6.82;5.45;;;28.30;52.20;;;;;;5116592;28;20024;-17
2022/07/04 06:31:57;;;;;;;7.13;5.07;;;28.40;52.10;;;;;;5116444;28;20019;-15
2022/07/04 06:37:07;;;;;;;9.05;5.25;;;28.60;51.60;;;;;;5116681;28;20530;-15
2022/07/04 06:39:33;;;;;;;7.70;5.25;;;28.70;51.60;;;;;;5098591;28;20032;-16
2022/07/04 06:41:59;;;;;;;8.50;4.97;;;28.90;51.30;;;;;;5116559;28;20019;-18
2022/07/04 06:44:25;;;;;;;5.53;4.22;;;29.00;51.10;;;;;;5115969;28;20027;-16
2022/07/04 06:46:51;;;;;;;7.18;4.63;;;29.10;50.80;;;;;;5116582;28;20031;-16
2022/07/04 06:49:17;;;;;;;7.15;4.90;;;29.20;50.40;;;;;;5116126;28;20140;-16
2022/07/04 06:51:43;;;;;;;7.10;4.53;;;29.40;50.00;;;;;;5116390;28;20587;-16
2022/07/04 06:54:09;;;;;;;8.02;5.25;;;29.50;49.90;;;;;;5116104;28;20023;-16
2022/07/04 06:56:35;;;;;;;10.02;5.10;;;29.50;49.40;;;;;;5115805;28;20107;-17
2022/07/04 06:59:03;;;;;;;5.40;4.45;;;29.60;49.20;;;;;;5114922;28;20051;-15
2022/07/04 07:01:29;;;;;;;8.32;4.80;;;29.70;49.10;;;;;;5116814;28;20039;-15
2022/07/04 07:03:55;;;;;;;7.05;4.55;;;29.90;49.30;;;;;;5115842;28;20036;-15
2022/07/04 07:06:23;;;;;;;6.82;4.53;;;29.90;49.00;;;;;;5115970;28;20066;-16
2022/07/04 07:08:49;;;;;;;8.85;4.70;;;30.10;48.80;;;;;;5098299;28;20114;-16
2022/07/04 07:11:18;;;;;;;6.65;4.82;;;30.30;48.30;;;;;;5116421;28;20064;-16
2022/07/04 07:13:49;;;;;;;9.43;4.45;;;30.50;47.80;;;;;;5116004;28;20549;-16
2022/07/04 07:16:17;;;;;;;7.47;4.50;;;30.60;47.50;;;;;;5115509;28;20455;-16
2022/07/04 07:18:43;;;;;;;9.27;4.53;;;30.70;46.80;;;;;;5115697;28;20031;-16
2022/07/04 07:21:10;;;;;;;8.32;4.20;;;30.90;46.40;;;;;;5115564;28;20027;-15
2022/07/04 07:23:40;;;;;;;9.13;4.93;;;31.00;46.20;;;;;;5115768;28;20093;-15
2022/07/04 07:26:07;;;;;;;4.95;4.20;;;31.20;45.60;;;;;;5115491;28;20421;-16
2022/07/04 07:28:32;;;;;;;10.60;4.80;;;31.30;45.30;;;;;;5115525;28;20027;-15
2022/07/04 07:31:00;;;;;;;7.63;4.57;;;31.40;44.80;;;;;;5115335;28;20386;-16
2022/07/04 07:33:26;;;;;;;10.25;4.80;;;31.50;44.50;;;;;;5115706;28;20429;-15
2022/07/04 07:35:52;;;;;;;7.35;4.88;;;31.70;44.10;;;;;;5115513;28;20103;-15
2022/07/04 07:38:17;;;;;;;8.23;4.32;;;31.90;44.10;;;;;;5115057;28;20027;-15
2022/07/04 07:40:43;;;;;;;7.10;4.70;;;32.00;43.30;;;;;;5115078;28;20051;-15
2022/07/04 07:43:09;;;;;;;7.50;4.28;;;32.20;42.50;;;;;;5115147;28;20028;-15
2022/07/04 07:45:35;;;;;;;6.28;4.25;;;32.40;42.10;;;;;;5115022;28;20034;-15
2022/07/04 07:48:02;;;;;;;6.53;4.13;;;32.70;40.70;;;;;;5114852;28;20030;-15
2022/07/04 07:50:28;;;;;;;4.65;3.90;;;32.90;40.80;;;;;;5115083;28;20098;-15
2022/07/04 07:52:54;;;;;;;8.88;4.95;;;33.20;40.80;;;;;;5096729;28;20126;-15
2022/07/04 07:55:21;;;;;;;7.88;4.97;;;33.50;39.60;;;;;;5115239;28;20023;-17
2022/07/04 07:57:47;;;;;;;6.78;4.25;;;33.60;40.20;;;;;;5115180;28;20452;-16
2022/07/04 08:00:13;;;;;;;4.82;3.90;;;33.90;40.30;;;;;;5114915;28;20563;-16
2022/07/04 08:05:24;;;;;;;10.50;5.10;;;34.30;39.10;;;;;;5114870;28;20526;-15
2022/07/04 08:07:50;;;;;;;6.35;4.38;;;34.50;39.10;;;;;;5114882;28;20073;-15
2022/07/04 08:10:16;;;;;;;5.57;4.22;;;34.60;39.30;;;;;;5114659;28;20036;-16
2022/07/04 08:12:42;;;;;;;9.55;4.95;;;34.80;39.00;;;;;;5114440;28;20036;-15
2022/07/04 08:15:08;;;;;;;9.00;4.90;;;34.90;38.70;;;;;;5114547;28;20022;-15
2022/07/04 08:17:35;;;;;;;6.88;4.60;;;35.10;38.00;;;;;;5114491;28;20020;-15
2022/07/04 08:20:03;;;;;;;7.32;4.25;;;35.30;37.80;;;;;;5114362;28;20478;-15
2022/07/04 08:22:29;;;;;;;8.82;4.85;;;35.50;36.80;;;;;;5114226;28;20489;-15
2022/07/04 08:24:55;;;;;;;7.68;4.43;;;35.70;36.60;;;;;;5114241;28;20042;-15
2022/07/04 08:27:24;;;;;;;10.23;4.63;;;35.90;36.30;;;;;;5114274;28;20039;-15
2022/07/04 08:29:50;;;;;;;6.15;3.83;;;36.20;36.30;;;;;;5114565;28;20020;-15
2022/07/04 08:32:16;;;;;;;8.75;4.43;;;36.40;35.90;;;;;;5114273;28;20028;-15
2022/07/04 08:34:42;;;;;;;7.63;4.30;;;36.60;35.80;;;;;;5114509;28;20028;-16
2022/07/04 08:37:09;;;;;;;5.65;4.28;;;36.60;35.70;;;;;;5114329;28;20028;-17
2022/07/04 08:39:35;;;;;;;6.07;4.13;;;36.70;35.60;;;;;;5114477;28;20030;-16
2022/07/04 08:42:06;;;;;;;9.88;4.00;;;36.60;35.60;;;;;;5114259;28;20036;-16
2022/07/04 08:44:38;;;;;;;5.13;4.18;;;36.70;35.80;;;;;;5114098;28;20031;-16
2022/07/04 08:47:05;;;;;;;;;;;36.70;36.10;;;;;;5114447;28;20020;-15
2022/07/04 08:49:34;;;;;;;6.50;4.40;;;36.90;33.50;;;;;;5113869;28;19955;-15
2022/07/04 08:52:04;;;;;;;6.60;3.80;;;37.20;34.90;;;;;;5114013;28;20116;-15
2022/07/04 09:00:04;;;;;;;7.05;3.95;;;37.40;34.50;;;;;;5114435;28;20030;-15
2022/07/04 09:02:32;;;;;;;5.88;3.90;;;37.70;34.20;;;;;;5113496;28;20038;-14
2022/07/04 09:04:59;;;;;;;4.63;4.13;;;38.00;32.80;;;;;;5114200;28;20035;-15
2022/07/04 09:07:28;;;;;;;6.22;4.10;;;38.40;32.90;;;;;;5113942;28;20030;-15
2022/07/04 09:09:56;;;;;;;8.60;4.10;;;38.70;32.80;;;;;;5113963;28;20027;-16
2022/07/04 09:12:22;;;;;;;5.60;4.13;;;38.90;32.90;;;;;;5113412;28;20479;-15
2022/07/04 09:14:49;;;;;;;5.25;4.22;;;39.10;32.80;;;;;;5113827;28;20050;-15
2022/07/04 09:17:15;;;;;;;7.30;4.60;;;39.40;32.80;;;;;;5113573;28;20115;-17
2022/07/04 09:19:42;;;;;;;6.60;4.60;;;39.70;32.10;;;;;;5113537;28;20020;-15
2022/07/04 09:22:11;;;;;;;5.70;4.13;;;39.90;31.70;;;;;;5115396;28;20023;-15
2022/07/04 09:24:51;;;;;;;6.20;4.05;;;40.00;31.00;;;;;;5120370;28;20032;-15
2022/07/04 09:27:37;;;;;;;6.68;4.30;;;40.20;29.90;;;;;;5120320;28;20035;-16
2022/07/04 09:30:04;;;;;;;6.07;3.65;;;40.30;29.20;;;;;;5102118;28;20046;-15
2022/07/04 09:32:41;;;;;;;4.75;3.47;;;40.30;30.40;;;;;;5120316;28;20527;-15
2022/07/04 09:35:22;;;;;;;7.22;3.88;;;40.40;30.20;;;;;;5120524;28;20024;-16
2022/07/04 09:37:50;;;;;;;5.53;4.00;;;40.70;29.70;;;;;;5120505;28;20020;-15
2022/07/04 09:40:29;;;;;;;5.40;3.33;;;40.90;29.20;;;;;;5120247;28;20020;-15
2022/07/04 09:42:58;;;;;;;4.20;3.50;;;41.00;29.40;;;;;;5121063;28;20371;-16
2022/07/04 09:45:25;;;;;;;7.00;3.90;;;41.20;28.50;;;;;;5120366;28;20028;-15
2022/07/04 09:47:55;;;;;;;4.28;3.30;;;41.40;28.50;;;;;;5119812;28;20387;-15
2022/07/04 09:50:23;;;;;;;3.00;2.70;;;41.50;26.90;;;;;;5120119;28;20027;-15
2022/07/04 09:53:01;;;;;;;4.13;2.80;;;41.80;25.10;;;;;;5101798;28;20027;-15
2022/07/04 09:55:32;;;;;;;3.70;2.92;;;41.90;24.30;;;;;;5120340;28;20128;-15
2022/07/04 09:58:01;;;;;;;5.13;3.57;;;41.90;23.90;;;;;;5120343;28;20028;-15
2022/07/04 10:00:39;;;;;;;8.05;3.20;;;41.90;25.10;;;;;;5119712;28;20036;-15
2022/07/04 10:03:26;;;;;;;3.08;2.78;;;42.00;24.70;;;;;;5120434;28;20510;-15
2022/07/04 10:06:04;;;;;;;4.80;2.90;;;42.40;23.90;;;;;;5120003;28;20055;-15
2022/07/04 10:08:31;;;;;;;5.22;2.72;;;42.70;24.10;;;;;;5119672;28;20080;-15
2022/07/04 10:10:59;;;;;;;4.43;3.40;;;42.90;24.40;;;;;;5120260;28;20023;-15
2022/07/04 10:13:25;;;;;;;3.78;3.20;;;43.10;24.20;;;;;;5120522;28;20072;-14
2022/07/04 10:15:51;;;;;;;6.00;3.00;;;43.40;24.40;;;;;;5101588;28;20073;-17
2022/07/04 10:18:20;;;;;;;5.18;3.33;;;43.60;24.70;;;;;;5119916;28;20115;-16
2022/07/04 10:20:48;;;;;;;6.25;3.67;;;43.70;25.10;;;;;;5119690;28;20051;-15
2022/07/04 10:23:18;;;;;;;7.63;3.53;;;44.00;24.70;;;;;;5119993;28;20028;-14
2022/07/04 10:25:48;;;;;;;4.72;3.38;;;44.10;24.60;;;;;;5119665;28;20068;-15
2022/07/04 10:28:16;;;;;;;6.07;3.20;;;44.00;24.30;;;;;;5119838;28;20019;-18
2022/07/04 10:30:43;;;;;;;4.93;3.38;;;43.90;23.90;;;;;;5120463;28;20035;-15
2022/07/04 10:33:11;;;;;;;3.30;3.00;;;43.50;24.50;;;;;;5119561;28;20054;-15
2022/07/04 10:35:55;;;;;;;7.00;3.15;;;43.10;25.10;;;;;;5116727;28;20022;-14
2022/07/04 10:38:24;;;;;;;7.85;3.50;;;42.70;25.50;;;;;;5116431;28;20059;-15
2022/07/04 10:41:07;;;;;;;6.40;3.00;;;42.40;25.60;;;;;;5116406;28;20031;-17
2022/07/04 10:43:43;;;;;;;4.78;2.80;;;41.90;26.00;;;;;;5116643;28;20015;-15
2022/07/04 10:46:15;;;;;;;5.88;3.30;;;41.70;25.90;;;;;;5116525;28;20038;-14
2022/07/04 10:49:16;;;;;;;3.53;2.70;;;41.90;25.60;;;;;;5116067;28;20513;-14
2022/07/04 10:51:47;;;;;;;5.68;3.10;;;42.20;24.70;;;;;;5116145;28;20026;-15
2022/07/04 10:54:16;;;;;;;5.65;3.30;;;42.40;24.40;;;;;;5116708;28;20501;-15
2022/07/04 10:56:44;;;;;;;5.15;3.20;;;42.60;24.20;;;;;;5116419;28;20031;-15
2022/07/04 10:59:25;;;;;;;5.75;2.97;;;42.50;24.90;;;;;;5116358;28;20035;-15
2022/07/04 11:02:06;;;;;;;3.95;2.70;;;42.30;24.90;;;;;;5116043;28;20024;-15
2022/07/04 11:04:50;;;;;;;4.10;3.07;;;42.00;25.00;;;;;;5115788;28;20099;-16
2022/07/04 11:07:21;;;;;;;2.60;2.40;;;41.30;25.10;;;;;;5115768;28;20501;-16
2022/07/04 11:10:21;;;;;;;4.10;2.60;;;40.50;25.90;;;;;;5115985;28;20506;-16
2022/07/04 11:12:56;;;;;;;5.35;3.10;;;40.00;26.40;;;;;;5115825;28;20024;-16
2022/07/04 11:15:25;;;;;;;3.38;2.42;;;39.70;26.70;;;;;;5116055;28;20027;-15
2022/07/04 11:17:56;;;;;;;4.07;2.75;;;39.40;27.50;;;;;;5115675;28;20028;-16
2022/07/04 11:20:23;;;;;;;3.05;2.75;;;39.30;28.00;;;;;;5115998;28;20363;-15
2022/07/04 11:22:50;;;;;;;5.38;3.05;;;39.10;28.40;;;;;;5115889;28;20114;-14
2022/07/04 11:25:16;;;;;;;4.10;2.50;;;39.10;28.10;;;;;;5115888;28;20035;-15
2022/07/04 11:27:42;;;;;;;4.97;2.92;;;38.90;28.10;;;;;;5116033;28;20047;-16
2022/07/04 11:30:10;;;;;;;2.67;2.47;;;38.90;28.10;;;;;;5116270;28;20023;-15
2022/07/04 11:32:38;;;;;;;4.20;3.05;;;38.70;28.40;;;;;;5115118;28;20080;-15
2022/07/04 11:35:06;;;;;;;6.10;3.50;;;38.70;28.30;;;;;;5115306;28;20030;-16
2022/07/04 11:37:33;;;;;;;6.68;3.42;;;38.80;27.70;;;;;;5115086;28;20038;-16
2022/07/04 11:45:51;;;;;;;4.35;3.33;;;39.30;27.90;;;;;;5114908;28;20084;-15
2022/07/04 11:48:24;;;;;;;6.88;4.10;;;39.10;28.00;;;;;;5114835;28;20058;-15
2022/07/04 11:50:50;;;;;;;9.15;3.95;;;38.70;29.10;;;;;;5115207;28;20020;-15
2022/07/04 11:53:17;;;;;;;8.00;4.25;;;38.30;30.10;;;;;;5115599;28;20145;-15
2022/07/04 11:55:55;;;;;;;6.82;4.25;;;38.10;30.60;;;;;;5115232;28;20058;-15
2022/07/04 11:58:22;;;;;;;4.85;3.95;;;37.80;31.00;;;;;;5115735;28;20043;-15
2022/07/04 12:00:48;;;;;;;5.82;4.00;;;37.40;31.70;;;;;;5114721;28;20406;-15
2022/07/04 12:03:15;;;;;;;6.35;4.30;;;37.20;31.90;;;;;;5115112;28;20498;-15
2022/07/04 12:05:43;;;;;;;5.30;3.88;;;37.40;31.30;;;;;;5114535;28;20020;-16
2022/07/04 12:08:10;;;;;;;7.65;4.18;;;37.50;30.80;;;;;;5114988;28;20032;-15
2022/07/04 12:10:36;;;;;;;5.32;3.90;;;37.50;30.70;;;;;;5114381;28;20525;-16
2022/07/04 12:13:09;;;;;;;5.75;3.97;;;37.60;30.90;;;;;;5114531;28;20535;-16
2022/07/04 12:15:40;;;;;;;6.75;3.35;;;38.10;29.40;;;;;;5114967;28;20027;-16
2022/07/04 12:18:16;;;;;;;5.90;3.10;;;38.90;28.50;;;;;;5114500;28;20031;-15
2022/07/04 12:20:42;;;;;;;3.40;2.80;;;39.20;27.30;;;;;;5114903;28;20019;-15
2022/07/04 12:23:09;;;;;;;4.80;3.00;;;39.20;27.40;;;;;;5114387;28;20027;-15
2022/07/04 12:25:38;;;;;;;4.55;3.40;;;38.90;27.70;;;;;;5114311;28;20491;-15
2022/07/04 12:28:09;;;;;;;7.03;3.50;;;38.60;28.30;;;;;;5114680;28;20042;-15
2022/07/04 12:30:37;;;;;;;8.63;3.50;;;38.30;29.00;;;;;;5114134;28;20072;-16
2022/07/04 12:33:08;;;;;;;11.88;3.60;;;38.10;30.20;;;;;;5114482;28;20115;-16
2022/07/04 12:35:47;;;;;;;7.03;3.35;;;37.90;31.00;;;;;;5114082;28;20027;-16
2022/07/04 12:38:23;;;;;;;9.50;3.20;;;37.40;31.30;;;;;;5114526;28;20142;-15
2022/07/04 12:40:56;;;;;;;5.97;2.95;;;36.90;31.80;;;;;;5115086;28;20562;-15
2022/07/04 12:43:23;;;;;;;5.03;2.80;;;36.60;32.50;;;;;;5114089;28;20032;-15
2022/07/04 12:45:54;;;;;;;6.63;2.92;;;36.80;32.50;;;;;;5114148;28;20039;-15
2022/07/04 12:48:25;;;;;;;4.53;2.85;;;37.30;32.00;;;;;;5113522;28;20130;-16
2022/07/04 12:50:52;;;;;;;4.72;3.03;;;37.90;31.30;;;;;;5113923;28;20038;-16
2022/07/04 12:53:19;;;;;;;5.88;2.70;;;38.00;31.30;;;;;;5114141;28;20059;-17
2022/07/04 12:55:48;;;;;;;4.68;2.72;;;37.90;31.00;;;;;;5113827;28;20047;-15
2022/07/04 12:58:15;;;;;;;4.97;2.60;;;37.60;31.00;;;;;;5112866;28;20494;-17
2022/07/04 13:00:42;;;;;;;3.78;2.20;;;37.30;30.90;;;;;;5113713;28;20431;-17
2022/07/04 13:03:08;;;;;;;4.88;2.53;;;36.90;31.80;;;;;;5113682;28;20106;-15
2022/07/04 13:05:36;;;;;;;4.20;2.40;;;36.70;31.70;;;;;;5113601;28;20024;-17
2022/07/04 13:08:04;;;;;;;6.32;2.28;;;36.60;31.90;;;;;;5114262;28;20360;-15
2022/07/04 13:10:32;;;;;;;3.42;2.25;;;36.70;31.90;;;;;;5113694;28;20480;-16